sensor_id;sensor_type;location;lat;lon;timestamp;temperature;humidity
18777;DHT22;9517;51.174;4.160;2023-06-24T00:02:17;18.50;99.90
18777;DHT22;9517;51.174;4.160;2023-06-24T00:04:44;18.40;99.90
18777;DHT22;9517;51.174;4.160;2023-06-24T00:07:12;18.50;99.90
18777;DHT22;9517;51.174;4.160;2023-06-24T00:09:40;18.50;99.90
18777;DHT22;9517;51.174;4.160;2023-06-24T00:12:08;18.50;99.90
18777;DHT22;9517;51.174;4.160;2023-06-24T00:14:35;18.50;99.90
18777;DHT22;9517;51.174;4.160;2023-06-24T00:17:04;18.60;99.90
18777;DHT22;9517;51.174;4.160;2023-06-24T00:19:32;18.60;99.90
18777;DHT22;9517;51.174;4.160;2023-06-24T00:22:00;18.50;99.90
18777;DHT22;9517;51.174;4.160;2023-06-24T00:24:30;18.40;99.90
18777;DHT22;9517;51.174;4.160;2023-06-24T00:26:57;18.50;99.90
18777;DHT22;9517;51.174;4.160;2023-06-24T00:29:24;18.50;99.90
18777;DHT22;9517;51.174;4.160;2023-06-24T00:31:52;18.50;99.90
18777;DHT22;9517;51.174;4.160;2023-06-24T00:34:19;18.40;99.90
18777;DHT22;9517;51.174;4.160;2023-06-24T00:36:46;18.40;99.90
18777;DHT22;9517;51.174;4.160;2023-06-24T00:39:14;18.40;99.90
18777;DHT22;9517;51.174;4.160;2023-06-24T00:41:42;18.40;99.90
18777;DHT22;9517;51.174;4.160;2023-06-24T00:44:10;18.40;99.90
18777;DHT22;9517;51.174;4.160;2023-06-24T00:46:37;18.30;99.90
18777;DHT22;9517;51.174;4.160;2023-06-24T00:49:05;18.30;99.90
18777;DHT22;9517;51.174;4.160;2023-06-24T00:51:33;18.20;99.90
18777;DHT22;9517;51.174;4.160;2023-06-24T00:54:01;18.20;99.90
18777;DHT22;9517;51.174;4.160;2023-06-24T00:56:31;18.20;99.90
18777;DHT22;9517;51.174;4.160;2023-06-24T00:59:02;18.10;99.90
18777;DHT22;9517;51.174;4.160;2023-06-24T01:01:33;18.10;99.90
18777;DHT22;9517;51.174;4.160;2023-06-24T01:04:01;18.10;99.90
18777;DHT22;9517;51.174;4.160;2023-06-24T01:06:29;18.00;99.90
18777;DHT22;9517;51.174;4.160;2023-06-24T01:08:57;17.90;99.90
18777;DHT22;9517;51.174;4.160;2023-06-24T01:11:26;17.90;99.90
18777;DHT22;9517;51.174;4.160;2023-06-24T01:13:53;17.80;99.90
18777;DHT22;9517;51.174;4.160;2023-06-24T01:16:28;17.90;99.90
18777;DHT22;9517;51.174;4.160;2023-06-24T01:19:00;17.80;99.90
18777;DHT22;9517;51.174;4.160;2023-06-24T01:21:40;17.70;99.90
18777;DHT22;9517;51.174;4.160;2023-06-24T01:24:37;17.80;99.90
18777;DHT22;9517;51.174;4.160;2023-06-24T01:27:43;17.80;99.90
18777;DHT22;9517;51.174;4.160;2023-06-24T01:30:31;17.70;99.90
18777;DHT22;9517;51.174;4.160;2023-06-24T01:33:04;17.70;99.90
18777;DHT22;9517;51.174;4.160;2023-06-24T01:35:35;17.70;99.90
18777;DHT22;9517;51.174;4.160;2023-06-24T01:38:07;17.60;99.90
18777;DHT22;9517;51.174;4.160;2023-06-24T01:40:38;17.60;99.90
18777;DHT22;9517;51.174;4.160;2023-06-24T01:43:08;17.60;99.90
18777;DHT22;9517;51.174;4.160;2023-06-24T01:45:40;17.60;99.90
18777;DHT22;9517;51.174;4.160;2023-06-24T01:48:13;17.60;99.90
18777;DHT22;9517;51.174;4.160;2023-06-24T01:50:45;17.50;99.90
18777;DHT22;9517;51.174;4.160;2023-06-24T01:53:15;17.50;99.90
18777;DHT22;9517;51.174;4.160;2023-06-24T01:55:43;17.40;99.90
18777;DHT22;9517;51.174;4.160;2023-06-24T01:58:14;17.30;99.90
18777;DHT22;9517;51.174;4.160;2023-06-24T02:00:43;17.20;99.90
18777;DHT22;9517;51.174;4.160;2023-06-24T02:03:12;17.20;99.90
18777;DHT22;9517;51.174;4.160;2023-06-24T02:05:41;17.20;99.90
18777;DHT22;9517;51.174;4.160;2023-06-24T02:08:08;17.20;99.90
18777;DHT22;9517;51.174;4.160;2023-06-24T02:10:38;17.20;99.90
18777;DHT22;9517;51.174;4.160;2023-06-24T02:13:08;17.00;99.90
18777;DHT22;9517;51.174;4.160;2023-06-24T02:15:38;17.00;99.90
18777;DHT22;9517;51.174;4.160;2023-06-24T02:18:06;17.10;99.90
18777;DHT22;9517;51.174;4.160;2023-06-24T02:20:37;17.10;99.90
18777;DHT22;9517;51.174;4.160;2023-06-24T02:23:07;17.10;99.90
18777;DHT22;9517;51.174;4.160;2023-06-24T02:25:36;17.00;99.90
18777;DHT22;9517;51.174;4.160;2023-06-24T02:28:06;17.00;99.90
18777;DHT22;9517;51.174;4.160;2023-06-24T02:30:34;16.90;99.90
18777;DHT22;9517;51.174;4.160;2023-06-24T02:33:03;16.80;99.90
18777;DHT22;9517;51.174;4.160;2023-06-24T02:35:30;16.80;99.90
18777;DHT22;9517;51.174;4.160;2023-06-24T02:37:58;16.80;99.90
18777;DHT22;9517;51.174;4.160;2023-06-24T02:40:26;16.70;99.90
18777;DHT22;9517;51.174;4.160;2023-06-24T02:42:53;16.80;99.90
18777;DHT22;9517;51.174;4.160;2023-06-24T02:45:21;16.70;99.90
18777;DHT22;9517;51.174;4.160;2023-06-24T02:47:49;16.80;99.90
18777;DHT22;9517;51.174;4.160;2023-06-24T02:50:16;16.70;99.90
18777;DHT22;9517;51.174;4.160;2023-06-24T02:52:44;16.70;99.90
18777;DHT22;9517;51.174;4.160;2023-06-24T02:55:14;16.60;99.90
18777;DHT22;9517;51.174;4.160;2023-06-24T02:57:41;16.60;99.90
18777;DHT22;9517;51.174;4.160;2023-06-24T03:00:10;16.50;99.90
18777;DHT22;9517;51.174;4.160;2023-06-24T03:02:39;16.50;99.90
18777;DHT22;9517;51.174;4.160;2023-06-24T03:05:07;16.50;99.90
18777;DHT22;9517;51.174;4.160;2023-06-24T03:07:36;16.50;99.90
18777;DHT22;9517;51.174;4.160;2023-06-24T03:10:05;16.50;99.90
18777;DHT22;9517;51.174;4.160;2023-06-24T03:12:34;16.40;99.90
18777;DHT22;9517;51.174;4.160;2023-06-24T03:15:01;16.40;99.90
18777;DHT22;9517;51.174;4.160;2023-06-24T03:17:28;16.40;99.90
18777;DHT22;9517;51.174;4.160;2023-06-24T03:19:56;16.40;99.90
18777;DHT22;9517;51.174;4.160;2023-06-24T03:22:24;16.40;99.90
18777;DHT22;9517;51.174;4.160;2023-06-24T03:24:51;16.40;99.90
18777;DHT22;9517;51.174;4.160;2023-06-24T03:27:19;16.40;99.90
18777;DHT22;9517;51.174;4.160;2023-06-24T03:29:48;16.50;99.90
18777;DHT22;9517;51.174;4.160;2023-06-24T03:32:15;16.50;99.90
18777;DHT22;9517;51.174;4.160;2023-06-24T03:34:42;16.40;99.90
18777;DHT22;9517;51.174;4.160;2023-06-24T03:37:09;16.40;99.90
18777;DHT22;9517;51.174;4.160;2023-06-24T03:39:36;16.30;99.90
18777;DHT22;9517;51.174;4.160;2023-06-24T03:42:04;16.40;99.90
18777;DHT22;9517;51.174;4.160;2023-06-24T03:44:31;16.40;99.90
18777;DHT22;9517;51.174;4.160;2023-06-24T03:46:59;16.50;99.90
18777;DHT22;9517;51.174;4.160;2023-06-24T03:49:27;16.60;99.90
18777;DHT22;9517;51.174;4.160;2023-06-24T03:51:54;16.60;99.90
18777;DHT22;9517;51.174;4.160;2023-06-24T03:54:21;16.50;99.90
18777;DHT22;9517;51.174;4.160;2023-06-24T03:56:48;16.50;99.90
18777;DHT22;9517;51.174;4.160;2023-06-24T03:59:15;16.50;99.90
18777;DHT22;9517;51.174;4.160;2023-06-24T04:01:42;16.50;99.90
18777;DHT22;9517;51.174;4.160;2023-06-24T04:04:11;16.40;99.90
18777;DHT22;9517;51.174;4.160;2023-06-24T04:06:38;16.40;99.90
18777;DHT22;9517;51.174;4.160;2023-06-24T04:09:05;16.40;99.90
18777;DHT22;9517;51.174;4.160;2023-06-24T04:11:34;16.40;99.90
18777;DHT22;9517;51.174;4.160;2023-06-24T04:14:01;16.50;99.90
18777;DHT22;9517;51.174;4.160;2023-06-24T04:16:32;16.50;99.90
18777;DHT22;9517;51.174;4.160;2023-06-24T04:18:59;16.50;99.90
18777;DHT22;9517;51.174;4.160;2023-06-24T04:21:28;16.50;99.90
18777;DHT22;9517;51.174;4.160;2023-06-24T04:23:55;16.50;99.90
18777;DHT22;9517;51.174;4.160;2023-06-24T04:26:22;16.60;99.90
18777;DHT22;9517;51.174;4.160;2023-06-24T04:28:49;16.60;99.90
18777;DHT22;9517;51.174;4.160;2023-06-24T04:31:17;16.50;99.90
18777;DHT22;9517;51.174;4.160;2023-06-24T04:33:44;16.70;99.90
18777;DHT22;9517;51.174;4.160;2023-06-24T04:36:11;16.70;99.90
18777;DHT22;9517;51.174;4.160;2023-06-24T04:38:40;16.80;99.90
18777;DHT22;9517;51.174;4.160;2023-06-24T04:41:07;16.90;99.90
18777;DHT22;9517;51.174;4.160;2023-06-24T04:43:34;16.90;99.90
18777;DHT22;9517;51.174;4.160;2023-06-24T04:46:02;17.00;99.90
18777;DHT22;9517;51.174;4.160;2023-06-24T04:48:29;17.00;99.90
18777;DHT22;9517;51.174;4.160;2023-06-24T04:50:56;17.00;99.90
18777;DHT22;9517;51.174;4.160;2023-06-24T04:53:23;17.10;99.90
18777;DHT22;9517;51.174;4.160;2023-06-24T04:55:52;17.20;99.90
18777;DHT22;9517;51.174;4.160;2023-06-24T04:58:19;17.30;99.90
18777;DHT22;9517;51.174;4.160;2023-06-24T05:00:47;17.30;99.90
18777;DHT22;9517;51.174;4.160;2023-06-24T05:03:14;17.30;99.90
18777;DHT22;9517;51.174;4.160;2023-06-24T05:05:41;17.30;99.90
18777;DHT22;9517;51.174;4.160;2023-06-24T05:08:08;17.40;99.90
18777;DHT22;9517;51.174;4.160;2023-06-24T05:10:35;17.40;99.90
18777;DHT22;9517;51.174;4.160;2023-06-24T05:13:04;17.50;99.90
18777;DHT22;9517;51.174;4.160;2023-06-24T05:15:31;17.50;99.90
18777;DHT22;9517;51.174;4.160;2023-06-24T05:17:58;17.50;99.90
18777;DHT22;9517;51.174;4.160;2023-06-24T05:20:25;17.60;99.90
18777;DHT22;9517;51.174;4.160;2023-06-24T05:22:53;17.60;99.90
18777;DHT22;9517;51.174;4.160;2023-06-24T05:25:20;17.70;99.90
18777;DHT22;9517;51.174;4.160;2023-06-24T05:27:48;17.80;99.90
18777;DHT22;9517;51.174;4.160;2023-06-24T05:30:16;17.90;99.90
18777;DHT22;9517;51.174;4.160;2023-06-24T05:32:43;17.80;99.90
18777;DHT22;9517;51.174;4.160;2023-06-24T05:35:10;18.00;99.90
18777;DHT22;9517;51.174;4.160;2023-06-24T05:37:37;18.00;99.90
18777;DHT22;9517;51.174;4.160;2023-06-24T05:40:06;18.10;99.90
18777;DHT22;9517;51.174;4.160;2023-06-24T05:42:35;18.10;99.90
18777;DHT22;9517;51.174;4.160;2023-06-24T05:45:02;18.10;99.90
18777;DHT22;9517;51.174;4.160;2023-06-24T05:47:30;18.10;99.90
18777;DHT22;9517;51.174;4.160;2023-06-24T05:50:00;18.30;99.90
18777;DHT22;9517;51.174;4.160;2023-06-24T05:52:27;18.50;99.90
18777;DHT22;9517;51.174;4.160;2023-06-24T05:54:55;18.60;99.90
18777;DHT22;9517;51.174;4.160;2023-06-24T05:57:22;18.80;99.90
18777;DHT22;9517;51.174;4.160;2023-06-24T05:59:49;18.80;99.90
18777;DHT22;9517;51.174;4.160;2023-06-24T06:02:16;18.90;99.90
18777;DHT22;9517;51.174;4.160;2023-06-24T06:04:47;18.80;99.90
18777;DHT22;9517;51.174;4.160;2023-06-24T06:07:14;18.80;99.90
18777;DHT22;9517;51.174;4.160;2023-06-24T06:09:41;18.90;99.90
18777;DHT22;9517;51.174;4.160;2023-06-24T06:12:09;18.90;99.90
18777;DHT22;9517;51.174;4.160;2023-06-24T06:14:36;18.90;99.90
18777;DHT22;9517;51.174;4.160;2023-06-24T06:17:04;18.90;99.90
18777;DHT22;9517;51.174;4.160;2023-06-24T06:19:31;18.90;99.90
18777;DHT22;9517;51.174;4.160;2023-06-24T06:21:59;19.00;99.90
18777;DHT22;9517;51.174;4.160;2023-06-24T06:24:26;19.10;99.90
18777;DHT22;9517;51.174;4.160;2023-06-24T06:26:53;19.30;99.90
18777;DHT22;9517;51.174;4.160;2023-06-24T06:29:21;19.40;99.90
18777;DHT22;9517;51.174;4.160;2023-06-24T06:31:48;19.50;99.90
18777;DHT22;9517;51.174;4.160;2023-06-24T06:34:15;19.50;99.90
18777;DHT22;9517;51.174;4.160;2023-06-24T06:36:42;19.50;99.90
18777;DHT22;9517;51.174;4.160;2023-06-24T06:39:10;19.70;99.90
18777;DHT22;9517;51.174;4.160;2023-06-24T06:41:37;19.80;99.90
18777;DHT22;9517;51.174;4.160;2023-06-24T06:44:04;20.00;99.90
18777;DHT22;9517;51.174;4.160;2023-06-24T06:46:32;20.00;99.90
18777;DHT22;9517;51.174;4.160;2023-06-24T06:48:59;20.00;99.90
18777;DHT22;9517;51.174;4.160;2023-06-24T06:51:26;20.00;99.90
18777;DHT22;9517;51.174;4.160;2023-06-24T06:53:53;20.10;99.90
18777;DHT22;9517;51.174;4.160;2023-06-24T06:56:24;20.20;99.90
18777;DHT22;9517;51.174;4.160;2023-06-24T06:58:51;20.30;99.90
18777;DHT22;9517;51.174;4.160;2023-06-24T07:01:19;20.40;99.90
18777;DHT22;9517;51.174;4.160;2023-06-24T07:03:46;20.40;99.90
18777;DHT22;9517;51.174;4.160;2023-06-24T07:06:13;20.40;99.90
18777;DHT22;9517;51.174;4.160;2023-06-24T07:08:40;20.40;99.90
18777;DHT22;9517;51.174;4.160;2023-06-24T07:11:07;20.40;99.90
18777;DHT22;9517;51.174;4.160;2023-06-24T07:13:36;20.50;99.90
18777;DHT22;9517;51.174;4.160;2023-06-24T07:16:03;20.50;99.90
18777;DHT22;9517;51.174;4.160;2023-06-24T07:18:30;20.60;99.90
18777;DHT22;9517;51.174;4.160;2023-06-24T07:21:00;20.70;99.90
18777;DHT22;9517;51.174;4.160;2023-06-24T07:23:27;21.00;99.90
18777;DHT22;9517;51.174;4.160;2023-06-24T07:25:54;21.20;99.90
18777;DHT22;9517;51.174;4.160;2023-06-24T07:28:22;21.30;99.90
18777;DHT22;9517;51.174;4.160;2023-06-24T07:30:50;21.20;99.90
18777;DHT22;9517;51.174;4.160;2023-06-24T07:33:17;21.40;99.90
18777;DHT22;9517;51.174;4.160;2023-06-24T07:35:44;21.30;99.90
18777;DHT22;9517;51.174;4.160;2023-06-24T07:38:11;21.50;99.90
18777;DHT22;9517;51.174;4.160;2023-06-24T07:40:38;21.60;99.90
18777;DHT22;9517;51.174;4.160;2023-06-24T07:43:05;21.70;99.90
18777;DHT22;9517;51.174;4.160;2023-06-24T07:45:32;22.10;99.90
18777;DHT22;9517;51.174;4.160;2023-06-24T07:48:01;22.40;99.90
18777;DHT22;9517;51.174;4.160;2023-06-24T07:50:28;22.40;99.90
18777;DHT22;9517;51.174;4.160;2023-06-24T07:52:56;22.10;99.90
18777;DHT22;9517;51.174;4.160;2023-06-24T07:55:23;22.20;99.90
18777;DHT22;9517;51.174;4.160;2023-06-24T07:57:50;22.60;99.90
18777;DHT22;9517;51.174;4.160;2023-06-24T08:00:18;22.60;99.90
18777;DHT22;9517;51.174;4.160;2023-06-24T08:02:45;22.70;99.90
18777;DHT22;9517;51.174;4.160;2023-06-24T08:05:13;22.80;99.90
18777;DHT22;9517;51.174;4.160;2023-06-24T08:07:40;23.20;99.90
18777;DHT22;9517;51.174;4.160;2023-06-24T08:10:08;23.50;99.90
18777;DHT22;9517;51.174;4.160;2023-06-24T08:12:35;23.90;99.90
18777;DHT22;9517;51.174;4.160;2023-06-24T08:15:03;23.70;99.90
18777;DHT22;9517;51.174;4.160;2023-06-24T08:17:30;23.40;99.90
18777;DHT22;9517;51.174;4.160;2023-06-24T08:19:57;23.10;99.90
18777;DHT22;9517;51.174;4.160;2023-06-24T08:22:25;23.40;99.90
18777;DHT22;9517;51.174;4.160;2023-06-24T08:24:52;23.50;99.90
18777;DHT22;9517;51.174;4.160;2023-06-24T08:27:19;23.30;99.90
18777;DHT22;9517;51.174;4.160;2023-06-24T08:29:46;23.30;99.90
18777;DHT22;9517;51.174;4.160;2023-06-24T08:32:13;23.50;99.90
18777;DHT22;9517;51.174;4.160;2023-06-24T08:34:40;23.70;99.90
18777;DHT22;9517;51.174;4.160;2023-06-24T08:37:07;23.80;99.90
18777;DHT22;9517;51.174;4.160;2023-06-24T08:39:36;24.00;99.90
18777;DHT22;9517;51.174;4.160;2023-06-24T08:42:04;24.30;99.90
18777;DHT22;9517;51.174;4.160;2023-06-24T08:44:31;24.60;99.90
18777;DHT22;9517;51.174;4.160;2023-06-24T08:46:58;24.30;99.90
18777;DHT22;9517;51.174;4.160;2023-06-24T08:49:28;24.20;99.90
18777;DHT22;9517;51.174;4.160;2023-06-24T08:52:00;24.20;99.90
18777;DHT22;9517;51.174;4.160;2023-06-24T08:54:30;24.20;99.90
18777;DHT22;9517;51.174;4.160;2023-06-24T08:56:59;24.20;99.90
18777;DHT22;9517;51.174;4.160;2023-06-24T08:59:27;24.30;99.90
18777;DHT22;9517;51.174;4.160;2023-06-24T09:01:54;24.30;99.90
18777;DHT22;9517;51.174;4.160;2023-06-24T09:04:21;24.60;99.90
18777;DHT22;9517;51.174;4.160;2023-06-24T09:06:48;25.30;99.90
18777;DHT22;9517;51.174;4.160;2023-06-24T09:09:18;25.90;99.90
18777;DHT22;9517;51.174;4.160;2023-06-24T09:11:51;26.30;99.90
18777;DHT22;9517;51.174;4.160;2023-06-24T09:14:21;26.40;99.90
18777;DHT22;9517;51.174;4.160;2023-06-24T09:16:52;26.60;99.90
18777;DHT22;9517;51.174;4.160;2023-06-24T09:19:22;26.60;99.90
18777;DHT22;9517;51.174;4.160;2023-06-24T09:21:49;26.90;99.90
18777;DHT22;9517;51.174;4.160;2023-06-24T09:24:18;26.70;99.90
18777;DHT22;9517;51.174;4.160;2023-06-24T09:26:45;26.20;99.90
18777;DHT22;9517;51.174;4.160;2023-06-24T09:29:12;26.10;99.90
18777;DHT22;9517;51.174;4.160;2023-06-24T09:31:48;26.40;99.90
18777;DHT22;9517;51.174;4.160;2023-06-24T09:34:16;26.40;99.90
18777;DHT22;9517;51.174;4.160;2023-06-24T09:36:44;26.60;99.90
18777;DHT22;9517;51.174;4.160;2023-06-24T09:39:11;26.70;99.90
18777;DHT22;9517;51.174;4.160;2023-06-24T09:41:42;26.80;99.90
18777;DHT22;9517;51.174;4.160;2023-06-24T09:44:10;26.50;99.90
18777;DHT22;9517;51.174;4.160;2023-06-24T09:46:38;26.40;99.90
18777;DHT22;9517;51.174;4.160;2023-06-24T09:49:07;26.10;99.90
18777;DHT22;9517;51.174;4.160;2023-06-24T09:51:36;26.40;99.90
18777;DHT22;9517;51.174;4.160;2023-06-24T09:54:06;26.60;99.90
18777;DHT22;9517;51.174;4.160;2023-06-24T09:56:35;26.40;99.90
18777;DHT22;9517;51.174;4.160;2023-06-24T09:59:04;26.70;99.90
18777;DHT22;9517;51.174;4.160;2023-06-24T10:01:32;27.20;99.90
18777;DHT22;9517;51.174;4.160;2023-06-24T10:04:02;27.90;99.90
18777;DHT22;9517;51.174;4.160;2023-06-24T10:06:32;28.40;99.90
18777;DHT22;9517;51.174;4.160;2023-06-24T10:08:59;28.00;99.90
18777;DHT22;9517;51.174;4.160;2023-06-24T10:11:27;27.90;99.90
18777;DHT22;9517;51.174;4.160;2023-06-24T10:13:54;28.20;99.90
18777;DHT22;9517;51.174;4.160;2023-06-24T10:16:21;27.90;99.90
18777;DHT22;9517;51.174;4.160;2023-06-24T10:18:48;28.00;99.90
18777;DHT22;9517;51.174;4.160;2023-06-24T10:21:15;27.60;99.90
18777;DHT22;9517;51.174;4.160;2023-06-24T10:23:52;27.60;99.90
18777;DHT22;9517;51.174;4.160;2023-06-24T10:26:24;27.80;99.90
18777;DHT22;9517;51.174;4.160;2023-06-24T10:29:12;28.00;99.90
18777;DHT22;9517;51.174;4.160;2023-06-24T10:31:53;28.10;99.90
18777;DHT22;9517;51.174;4.160;2023-06-24T10:34:27;28.50;99.90
18777;DHT22;9517;51.174;4.160;2023-06-24T10:36:54;28.50;99.90
18777;DHT22;9517;51.174;4.160;2023-06-24T10:39:45;28.60;99.90
18777;DHT22;9517;51.174;4.160;2023-06-24T10:42:29;28.30;99.90
18777;DHT22;9517;51.174;4.160;2023-06-24T10:44:57;28.40;99.90
18777;DHT22;9517;51.174;4.160;2023-06-24T10:47:26;27.90;99.90
18777;DHT22;9517;51.174;4.160;2023-06-24T10:49:53;27.90;99.90
18777;DHT22;9517;51.174;4.160;2023-06-24T10:52:22;28.10;99.90
18777;DHT22;9517;51.174;4.160;2023-06-24T10:54:51;28.80;99.90
18777;DHT22;9517;51.174;4.160;2023-06-24T10:57:23;29.60;99.90
18777;DHT22;9517;51.174;4.160;2023-06-24T10:59:51;29.00;99.90
18777;DHT22;9517;51.174;4.160;2023-06-24T11:02:20;28.80;99.90
18777;DHT22;9517;51.174;4.160;2023-06-24T11:04:48;28.90;99.90
18777;DHT22;9517;51.174;4.160;2023-06-24T11:07:17;29.20;99.90
18777;DHT22;9517;51.174;4.160;2023-06-24T11:09:50;29.50;99.90
18777;DHT22;9517;51.174;4.160;2023-06-24T11:12:18;30.20;99.90
18777;DHT22;9517;51.174;4.160;2023-06-24T11:14:45;30.60;99.90
18777;DHT22;9517;51.174;4.160;2023-06-24T11:17:12;30.20;99.90
18777;DHT22;9517;51.174;4.160;2023-06-24T11:19:47;30.80;99.90
18777;DHT22;9517;51.174;4.160;2023-06-24T11:22:15;31.50;99.90
18777;DHT22;9517;51.174;4.160;2023-06-24T11:24:42;31.40;99.90
18777;DHT22;9517;51.174;4.160;2023-06-24T11:27:11;31.10;99.90
18777;DHT22;9517;51.174;4.160;2023-06-24T11:29:38;30.80;99.90
18777;DHT22;9517;51.174;4.160;2023-06-24T11:32:07;30.30;99.90
18777;DHT22;9517;51.174;4.160;2023-06-24T11:34:35;31.20;99.90
18777;DHT22;9517;51.174;4.160;2023-06-24T11:37:13;31.40;99.90
18777;DHT22;9517;51.174;4.160;2023-06-24T11:39:40;31.90;99.90
18777;DHT22;9517;51.174;4.160;2023-06-24T11:42:08;32.80;98.10
18777;DHT22;9517;51.174;4.160;2023-06-24T11:44:41;33.50;98.70
18777;DHT22;9517;51.174;4.160;2023-06-24T11:47:10;33.50;96.20
18777;DHT22;9517;51.174;4.160;2023-06-24T11:49:51;33.60;96.70
18777;DHT22;9517;51.174;4.160;2023-06-24T11:52:19;33.30;95.20
18777;DHT22;9517;51.174;4.160;2023-06-24T11:54:50;33.60;96.50
18777;DHT22;9517;51.174;4.160;2023-06-24T11:57:17;34.10;95.30
18777;DHT22;9517;51.174;4.160;2023-06-24T11:59:51;34.80;94.80
18777;DHT22;9517;51.174;4.160;2023-06-24T12:02:19;34.50;94.10
18777;DHT22;9517;51.174;4.160;2023-06-24T12:04:48;34.80;94.60
18777;DHT22;9517;51.174;4.160;2023-06-24T12:07:15;36.30;93.50
18777;DHT22;9517;51.174;4.160;2023-06-24T12:09:42;36.10;92.50
18777;DHT22;9517;51.174;4.160;2023-06-24T12:12:09;35.40;92.80
18777;DHT22;9517;51.174;4.160;2023-06-24T12:14:36;36.30;91.30
18777;DHT22;9517;51.174;4.160;2023-06-24T12:17:05;36.50;91.00
18777;DHT22;9517;51.174;4.160;2023-06-24T12:19:32;34.40;88.10
18777;DHT22;9517;51.174;4.160;2023-06-24T12:21:59;33.60;90.40
18777;DHT22;9517;51.174;4.160;2023-06-24T12:24:26;34.00;91.00
18777;DHT22;9517;51.174;4.160;2023-06-24T12:26:53;33.80;93.20
18777;DHT22;9517;51.174;4.160;2023-06-24T12:29:20;34.10;91.90
18777;DHT22;9517;51.174;4.160;2023-06-24T12:31:47;34.90;90.40
18777;DHT22;9517;51.174;4.160;2023-06-24T12:34:16;35.50;93.50
18777;DHT22;9517;51.174;4.160;2023-06-24T12:36:43;36.40;92.10
18777;DHT22;9517;51.174;4.160;2023-06-24T12:39:10;37.00;88.40
18777;DHT22;9517;51.174;4.160;2023-06-24T12:41:37;36.00;89.80
18777;DHT22;9517;51.174;4.160;2023-06-24T12:44:04;35.90;90.50
18777;DHT22;9517;51.174;4.160;2023-06-24T12:46:31;35.30;89.00
18777;DHT22;9517;51.174;4.160;2023-06-24T12:48:59;35.30;90.10
18777;DHT22;9517;51.174;4.160;2023-06-24T12:51:27;36.10;86.30
18777;DHT22;9517;51.174;4.160;2023-06-24T12:53:54;36.30;90.10
18777;DHT22;9517;51.174;4.160;2023-06-24T12:56:21;36.50;86.60
18777;DHT22;9517;51.174;4.160;2023-06-24T12:58:49;36.20;88.30
18777;DHT22;9517;51.174;4.160;2023-06-24T13:01:16;35.80;87.00
18777;DHT22;9517;51.174;4.160;2023-06-24T13:03:45;35.70;89.40
18777;DHT22;9517;51.174;4.160;2023-06-24T13:06:12;35.60;90.20
18777;DHT22;9517;51.174;4.160;2023-06-24T13:08:42;36.20;89.80
18777;DHT22;9517;51.174;4.160;2023-06-24T13:11:10;37.20;84.90
18777;DHT22;9517;51.174;4.160;2023-06-24T13:13:37;37.80;84.70
18777;DHT22;9517;51.174;4.160;2023-06-24T13:16:04;37.30;85.40
18777;DHT22;9517;51.174;4.160;2023-06-24T13:18:31;37.00;87.10
18777;DHT22;9517;51.174;4.160;2023-06-24T13:20:58;37.10;83.00
18777;DHT22;9517;51.174;4.160;2023-06-24T13:23:25;36.50;84.40
18777;DHT22;9517;51.174;4.160;2023-06-24T13:25:54;36.60;84.50
18777;DHT22;9517;51.174;4.160;2023-06-24T13:28:21;36.70;82.30
18777;DHT22;9517;51.174;4.160;2023-06-24T13:30:52;36.80;86.50
18777;DHT22;9517;51.174;4.160;2023-06-24T13:33:20;37.50;85.10
18777;DHT22;9517;51.174;4.160;2023-06-24T13:35:47;37.60;83.80
18777;DHT22;9517;51.174;4.160;2023-06-24T13:38:15;37.80;80.20
18777;DHT22;9517;51.174;4.160;2023-06-24T13:40:42;37.60;78.30
18777;DHT22;9517;51.174;4.160;2023-06-24T13:43:10;36.50;78.30
18777;DHT22;9517;51.174;4.160;2023-06-24T13:45:52;36.60;77.30
18777;DHT22;9517;51.174;4.160;2023-06-24T13:48:18;36.60;80.20
18777;DHT22;9517;51.174;4.160;2023-06-24T13:50:45;37.40;78.10
18777;DHT22;9517;51.174;4.160;2023-06-24T13:53:13;37.00;77.00
18777;DHT22;9517;51.174;4.160;2023-06-24T13:55:40;36.60;74.30
18777;DHT22;9517;51.174;4.160;2023-06-24T13:58:07;36.50;75.10
18777;DHT22;9517;51.174;4.160;2023-06-24T14:00:35;37.00;77.80
18777;DHT22;9517;51.174;4.160;2023-06-24T14:03:02;37.20;79.60
18777;DHT22;9517;51.174;4.160;2023-06-24T14:05:29;36.80;76.80
18777;DHT22;9517;51.174;4.160;2023-06-24T14:07:56;37.30;81.40
18777;DHT22;9517;51.174;4.160;2023-06-24T14:10:23;37.50;75.10
18777;DHT22;9517;51.174;4.160;2023-06-24T14:12:50;36.70;75.00
18777;DHT22;9517;51.174;4.160;2023-06-24T14:15:17;36.90;77.90
18777;DHT22;9517;51.174;4.160;2023-06-24T14:17:46;36.50;75.70
18777;DHT22;9517;51.174;4.160;2023-06-24T14:20:13;37.10;76.10
18777;DHT22;9517;51.174;4.160;2023-06-24T14:22:40;36.30;73.10
18777;DHT22;9517;51.174;4.160;2023-06-24T14:25:07;35.40;74.00
18777;DHT22;9517;51.174;4.160;2023-06-24T14:27:34;35.80;77.60
18777;DHT22;9517;51.174;4.160;2023-06-24T14:30:01;36.30;76.10
18777;DHT22;9517;51.174;4.160;2023-06-24T14:32:28;35.30;77.30
18777;DHT22;9517;51.174;4.160;2023-06-24T14:34:57;36.10;79.50
18777;DHT22;9517;51.174;4.160;2023-06-24T14:37:24;36.50;77.00
18777;DHT22;9517;51.174;4.160;2023-06-24T14:39:51;35.90;75.30
18777;DHT22;9517;51.174;4.160;2023-06-24T14:42:18;35.60;76.60
18777;DHT22;9517;51.174;4.160;2023-06-24T14:44:45;36.00;74.20
18777;DHT22;9517;51.174;4.160;2023-06-24T14:47:12;36.20;73.60
18777;DHT22;9517;51.174;4.160;2023-06-24T14:49:41;36.50;72.80
18777;DHT22;9517;51.174;4.160;2023-06-24T14:52:10;36.20;75.90
18777;DHT22;9517;51.174;4.160;2023-06-24T14:54:37;36.40;73.90
18777;DHT22;9517;51.174;4.160;2023-06-24T14:57:04;36.10;74.70
18777;DHT22;9517;51.174;4.160;2023-06-24T14:59:31;36.20;74.80
18777;DHT22;9517;51.174;4.160;2023-06-24T15:01:58;35.90;74.60
18777;DHT22;9517;51.174;4.160;2023-06-24T15:04:25;36.20;77.20
18777;DHT22;9517;51.174;4.160;2023-06-24T15:06:52;36.10;76.30
18777;DHT22;9517;51.174;4.160;2023-06-24T15:09:22;36.20;76.10
18777;DHT22;9517;51.174;4.160;2023-06-24T15:11:49;36.20;75.10
18777;DHT22;9517;51.174;4.160;2023-06-24T15:14:16;36.90;74.00
18777;DHT22;9517;51.174;4.160;2023-06-24T15:16:43;36.30;74.40
18777;DHT22;9517;51.174;4.160;2023-06-24T15:19:10;36.50;75.50
18777;DHT22;9517;51.174;4.160;2023-06-24T15:21:37;36.20;77.50
18777;DHT22;9517;51.174;4.160;2023-06-24T15:24:05;36.90;78.50
18777;DHT22;9517;51.174;4.160;2023-06-24T15:26:33;37.20;74.90
18777;DHT22;9517;51.174;4.160;2023-06-24T15:29:00;36.60;73.30
18777;DHT22;9517;51.174;4.160;2023-06-24T15:31:27;36.30;77.70
18777;DHT22;9517;51.174;4.160;2023-06-24T15:33:54;36.60;75.10
18777;DHT22;9517;51.174;4.160;2023-06-24T15:36:21;36.60;73.00
18777;DHT22;9517;51.174;4.160;2023-06-24T15:38:52;36.80;74.30
18777;DHT22;9517;51.174;4.160;2023-06-24T15:41:19;37.30;77.50
18777;DHT22;9517;51.174;4.160;2023-06-24T15:43:47;37.10;75.70
18777;DHT22;9517;51.174;4.160;2023-06-24T15:46:15;36.50;75.80
18777;DHT22;9517;51.174;4.160;2023-06-24T15:48:42;36.70;77.40
18777;DHT22;9517;51.174;4.160;2023-06-24T15:51:09;37.20;73.70
18777;DHT22;9517;51.174;4.160;2023-06-24T15:53:36;37.30;73.70